Time;durP1;ratioP1;P1;durP2;ratioP2;P2;SDS_P1;SDS_P2;PMS_P1;PMS_P2;Temp;Humidity;BMP_temperature;BMP_pressure;BME280_temperature;BME280_humidity;BME280_pressure;Samples;Min_cycle;Max_cycle;Signal;HPM_P1;HPM_P2
2022/05/19 00:01:18;;;;;;;3.07;2.87;;;21.40;60.20;;;;;;5097853;28;20408;-67
2022/05/19 00:03:44;;;;;;;3.20;3.00;;;21.40;60.10;;;;;;5096843;28;20878;-66
2022/05/19 00:06:11;;;;;;;2.93;2.83;;;21.40;60.20;;;;;;5097627;28;20221;-67
2022/05/19 00:08:37;;;;;;;3.40;3.10;;;21.40;60.10;;;;;;5097979;28;20190;-67
2022/05/19 00:11:08;;;;;;;2.90;2.70;;;21.40;60.10;;;;;;5097658;28;20396;-65
2022/05/19 00:13:34;;;;;;;2.70;2.60;;;21.40;60.10;;;;;;5097614;28;20423;-67
2022/05/19 00:16:00;;;;;;;3.37;3.17;;;21.40;60.10;;;;;;5097394;28;20456;-67
2022/05/19 00:18:26;;;;;;;3.20;3.00;;;21.40;60.10;;;;;;5097491;28;20465;-66
2022/05/19 00:20:52;;;;;;;3.30;3.10;;;21.40;60.10;;;;;;5097447;28;20506;-67
2022/05/19 00:23:18;;;;;;;3.20;3.00;;;21.50;60.10;;;;;;5097450;28;20420;-66
2022/05/19 00:25:45;;;;;;;2.87;2.67;;;21.40;60.10;;;;;;5097313;28;20438;-67
2022/05/19 00:28:10;;;;;;;2.63;2.53;;;21.40;60.10;;;;;;5097304;28;20424;-66
2022/05/19 00:30:37;;;;;;;3.07;2.87;;;21.40;60.10;;;;;;5097239;28;20396;-66
2022/05/19 00:33:03;;;;;;;2.60;2.50;;;21.40;60.10;;;;;;5097493;28;20209;-67
2022/05/19 00:35:29;;;;;;;2.87;2.53;;;21.40;60.10;;;;;;5096546;28;20451;-67
2022/05/19 00:37:55;;;;;;;3.00;2.80;;;21.50;60.00;;;;;;5096311;28;20400;-66
2022/05/19 00:40:22;;;;;;;3.00;2.80;;;21.40;60.00;;;;;;5097075;28;20413;-67
2022/05/19 00:42:50;;;;;;;2.80;2.70;;;21.40;60.00;;;;;;5097054;28;20208;-67
2022/05/19 00:45:19;;;;;;;3.60;3.30;;;21.40;60.00;;;;;;5097255;28;20404;-65
2022/05/19 00:48:08;;;;;;;2.53;2.43;;;21.40;60.00;;;;;;5096595;28;20461;-67
2022/05/19 00:50:45;;;;;;;2.67;2.53;;;21.40;60.00;;;;;;5096875;28;20397;-67
2022/05/19 00:53:39;;;;;;;3.20;3.00;;;21.40;60.00;;;;;;5096800;28;20794;-65
2022/05/19 00:56:25;;;;;;;2.77;2.53;;;21.40;60.00;;;;;;5092685;28;20518;-66
2022/05/19 00:59:10;;;;;;;2.83;2.67;;;21.40;60.00;;;;;;5096742;28;20407;-66
2022/05/19 01:01:42;;;;;;;3.20;3.00;;;21.40;60.00;;;;;;5096707;28;20453;-67
2022/05/19 01:04:31;;;;;;;2.80;2.60;;;21.40;59.90;;;;;;5096620;28;20388;-67
2022/05/19 01:07:04;;;;;;;2.50;2.40;;;21.40;59.90;;;;;;5096528;28;20894;-67
2022/05/19 01:09:34;;;;;;;2.80;2.60;;;21.40;59.90;;;;;;5096581;28;20384;-66
2022/05/19 01:12:04;;;;;;;2.63;2.53;;;21.40;59.90;;;;;;5096543;28;20835;-65
2022/05/19 01:14:31;;;;;;;2.50;2.40;;;21.40;59.90;;;;;;5096300;28;20448;-65
2022/05/19 01:16:57;;;;;;;2.60;2.50;;;21.40;59.90;;;;;;5096294;28;20412;-67
2022/05/19 01:19:36;;;;;;;3.33;3.03;;;21.40;59.80;;;;;;5096349;28;20454;-66
2022/05/19 01:22:22;;;;;;;2.83;2.63;;;21.40;59.90;;;;;;5096306;28;20388;-65
2022/05/19 01:25:05;;;;;;;3.50;3.20;;;21.40;59.80;;;;;;5095769;28;20424;-65
2022/05/19 01:27:31;;;;;;;3.00;2.80;;;21.40;59.80;;;;;;5096091;28;20427;-65
2022/05/19 01:29:56;;;;;;;3.30;3.10;;;21.40;59.80;;;;;;5096163;28;20408;-68
2022/05/19 01:32:26;;;;;;;2.63;2.50;;;21.40;59.80;;;;;;5096095;28;20250;-65
2022/05/19 01:34:52;;;;;;;2.77;2.57;;;21.40;59.80;;;;;;5096214;28;20527;-66
2022/05/19 01:37:17;;;;;;;2.70;2.60;;;21.40;59.80;;;;;;5094973;28;20484;-67
2022/05/19 01:39:47;;;;;;;2.50;2.40;;;21.40;59.80;;;;;;5095937;28;20420;-66
2022/05/19 01:42:48;;;;;;;2.47;2.37;;;21.40;59.80;;;;;;5095901;28;20184;-67
2022/05/19 01:45:40;;;;;;;2.70;2.50;;;21.40;59.80;;;;;;5095873;28;20388;-67
2022/05/19 01:48:29;;;;;;;2.37;2.20;;;21.40;59.80;;;;;;5095173;28;20508;-65
2022/05/19 01:51:06;;;;;;;2.70;2.60;;;21.40;59.70;;;;;;5095766;28;20400;-65
2022/05/19 01:53:34;;;;;;;3.40;3.20;;;21.40;59.70;;;;;;5095667;28;20853;-66
2022/05/19 01:56:30;;;;;;;2.87;2.67;;;21.40;59.70;;;;;;5095464;28;20464;-65
2022/05/19 01:59:13;;;;;;;2.50;2.37;;;21.40;59.70;;;;;;5095619;28;20397;-67
2022/05/19 02:01:44;;;;;;;3.13;2.93;;;21.40;59.70;;;;;;5095806;28;20695;-65
2022/05/19 02:04:19;;;;;;;2.50;2.30;;;21.40;59.50;;;;;;5095512;28;20853;-64
2022/05/19 02:06:57;;;;;;;3.10;2.80;;;21.40;59.50;;;;;;5084094;28;20782;-66
2022/05/19 02:09:28;;;;;;;2.50;2.30;;;21.40;59.50;;;;;;5094464;28;20400;-66
2022/05/19 02:11:56;;;;;;;2.47;2.30;;;21.40;59.50;;;;;;5095359;28;20393;-66
2022/05/19 02:14:34;;;;;;;2.90;2.60;;;21.40;59.50;;;;;;5095213;28;20443;-67
2022/05/19 02:17:04;;;;;;;2.67;2.47;;;21.40;59.50;;;;;;5095206;28;20412;-65
2022/05/19 02:19:35;;;;;;;2.77;2.60;;;21.40;59.40;;;;;;5095182;28;20425;-65
2022/05/19 02:22:04;;;;;;;2.50;2.40;;;21.40;59.40;;;;;;5095167;28;20396;-68
2022/05/19 02:24:30;;;;;;;2.80;2.60;;;21.40;59.40;;;;;;5095088;28;20412;-65
2022/05/19 02:26:56;;;;;;;2.93;2.73;;;21.40;59.30;;;;;;5094986;28;20429;-66
2022/05/19 02:29:26;;;;;;;2.30;2.20;;;21.40;59.40;;;;;;5094053;28;20802;-66
2022/05/19 02:31:52;;;;;;;2.80;2.60;;;21.40;59.30;;;;;;5095173;28;20424;-65
2022/05/19 02:34:18;;;;;;;2.50;2.33;;;21.40;59.30;;;;;;5095139;28;20869;-67
2022/05/19 02:36:43;;;;;;;2.60;2.50;;;21.40;59.30;;;;;;5094831;28;20182;-67
2022/05/19 02:39:10;;;;;;;3.20;2.90;;;21.40;59.30;;;;;;5094863;28;20408;-67
2022/05/19 02:41:36;;;;;;;2.60;2.40;;;21.40;59.30;;;;;;5093835;28;20186;-66
2022/05/19 02:44:01;;;;;;;2.87;2.77;;;21.40;59.20;;;;;;5093748;28;20405;-67
2022/05/19 02:46:27;;;;;;;3.03;2.83;;;21.40;59.30;;;;;;5093663;28;20436;-67
2022/05/19 02:48:54;;;;;;;2.57;2.47;;;21.40;59.30;;;;;;5094507;28;20237;-67
2022/05/19 02:51:19;;;;;;;2.90;2.70;;;21.40;59.30;;;;;;5094664;28;20239;-65
2022/05/19 02:53:45;;;;;;;3.00;2.70;;;21.40;59.30;;;;;;5094886;28;20772;-67
2022/05/19 02:56:10;;;;;;;2.97;2.77;;;21.40;59.20;;;;;;5094483;28;20198;-67
2022/05/19 02:58:36;;;;;;;3.13;2.90;;;21.40;59.20;;;;;;5094250;28;20182;-65
2022/05/19 03:01:02;;;;;;;2.27;2.07;;;21.40;59.20;;;;;;5093162;28;20500;-66
2022/05/19 03:03:27;;;;;;;2.50;2.40;;;21.40;59.20;;;;;;5094516;28;20178;-65
2022/05/19 03:05:53;;;;;;;2.87;2.63;;;21.40;59.10;;;;;;5094382;28;20538;-65
2022/05/19 03:08:18;;;;;;;3.27;2.97;;;21.40;59.10;;;;;;5094425;28;20175;-66
2022/05/19 03:10:44;;;;;;;2.80;2.60;;;21.40;59.10;;;;;;5094432;28;20588;-66
2022/05/19 03:13:19;;;;;;;2.87;2.70;;;21.40;59.10;;;;;;5094363;28;20170;-68
2022/05/19 03:15:45;;;;;;;2.77;2.57;;;21.40;59.10;;;;;;5094210;28;20201;-66
2022/05/19 03:18:11;;;;;;;2.70;2.50;;;21.40;59.00;;;;;;5094305;28;20404;-66
2022/05/19 03:20:36;;;;;;;3.03;2.83;;;21.40;59.00;;;;;;5094281;28;20415;-67
2022/05/19 03:23:02;;;;;;;3.00;2.80;;;21.40;59.00;;;;;;5094328;28;20253;-68
2022/05/19 03:25:28;;;;;;;3.23;3.03;;;21.40;59.00;;;;;;5094175;28;20619;-65
2022/05/19 03:27:53;;;;;;;3.17;2.70;;;21.40;59.00;;;;;;5094256;28;20175;-67
2022/05/19 03:30:19;;;;;;;3.43;3.13;;;21.40;59.00;;;;;;5094264;28;20231;-65
2022/05/19 03:32:45;;;;;;;3.10;2.53;;;21.40;58.90;;;;;;5094213;28;20175;-67
2022/05/19 03:35:12;;;;;;;2.80;2.63;;;21.40;58.90;;;;;;5094126;28;20215;-67
2022/05/19 03:37:38;;;;;;;2.97;2.77;;;21.40;59.00;;;;;;5094069;28;20194;-66
2022/05/19 03:40:06;;;;;;;3.53;3.33;;;21.40;58.90;;;;;;5094181;28;20546;-66
2022/05/19 03:42:32;;;;;;;2.93;2.60;;;21.40;58.90;;;;;;5093163;28;20166;-65
2022/05/19 03:44:57;;;;;;;3.07;2.87;;;21.40;58.90;;;;;;5094088;28;20459;-66
2022/05/19 03:47:23;;;;;;;2.83;2.63;;;21.40;58.80;;;;;;5093794;28;20229;-67
2022/05/19 03:49:49;;;;;;;2.70;2.50;;;21.40;58.80;;;;;;5094088;28;20163;-67
2022/05/19 03:52:14;;;;;;;3.53;3.30;;;21.40;58.80;;;;;;5094030;28;20198;-67
2022/05/19 03:54:40;;;;;;;3.50;3.20;;;21.40;58.80;;;;;;5094236;28;20205;-67
2022/05/19 03:57:06;;;;;;;2.97;2.77;;;21.40;58.80;;;;;;5092916;28;20198;-65
2022/05/19 03:59:33;;;;;;;2.80;2.70;;;21.40;58.80;;;;;;5093969;28;20163;-65
2022/05/19 04:02:04;;;;;;;3.10;2.90;;;21.40;58.80;;;;;;5094188;28;20412;-67
2022/05/19 04:04:29;;;;;;;3.30;3.07;;;21.40;58.80;;;;;;5092971;28;20416;-65
2022/05/19 04:06:55;;;;;;;2.77;2.57;;;21.40;58.80;;;;;;5090283;28;20539;-66
2022/05/19 04:09:21;;;;;;;2.90;2.70;;;21.40;58.90;;;;;;5082529;28;20182;-65
2022/05/19 04:11:46;;;;;;;3.20;2.90;;;21.40;58.80;;;;;;5096540;28;20192;-67
2022/05/19 04:14:12;;;;;;;3.00;2.80;;;21.40;59.00;;;;;;5097526;28;20189;-65
2022/05/19 04:16:38;;;;;;;3.13;2.93;;;21.40;58.80;;;;;;5097790;28;20201;-65
2022/05/19 04:19:05;;;;;;;2.97;2.77;;;21.40;58.80;;;;;;5096546;28;20234;-66
2022/05/19 04:21:32;;;;;;;2.80;2.70;;;21.40;58.80;;;;;;5097457;28;20423;-66
2022/05/19 04:23:58;;;;;;;2.90;2.70;;;21.40;58.80;;;;;;5097363;28;20417;-65
2022/05/19 04:26:24;;;;;;;3.07;2.87;;;21.40;58.80;;;;;;5096381;28;20523;-67
2022/05/19 04:28:50;;;;;;;3.10;2.90;;;21.40;58.90;;;;;;5097292;28;20516;-67
2022/05/19 04:31:15;;;;;;;2.73;2.53;;;21.40;59.00;;;;;;5097320;28;20483;-67
2022/05/19 04:33:41;;;;;;;2.87;2.70;;;21.40;59.00;;;;;;5097207;28;20174;-65
2022/05/19 04:36:07;;;;;;;3.27;3.07;;;21.40;59.20;;;;;;5097293;28;20283;-66
2022/05/19 04:38:32;;;;;;;3.00;2.80;;;21.40;59.10;;;;;;5097122;28;20182;-65
2022/05/19 04:41:02;;;;;;;2.50;2.40;;;21.40;59.40;;;;;;5097132;28;20536;-67
2022/05/19 04:43:27;;;;;;;2.53;2.43;;;21.40;59.10;;;;;;5097072;28;20171;-65
2022/05/19 04:45:54;;;;;;;3.13;2.90;;;21.40;59.20;;;;;;5096931;28;20830;-67
2022/05/19 04:48:21;;;;;;;2.60;2.50;;;21.40;59.30;;;;;;5096789;28;20687;-67
2022/05/19 04:50:51;;;;;;;3.43;3.13;;;21.40;59.40;;;;;;5096911;28;20416;-65
2022/05/19 04:53:17;;;;;;;2.90;2.70;;;21.40;59.50;;;;;;5097116;28;20415;-66
2022/05/19 04:55:43;;;;;;;2.67;2.57;;;21.40;59.60;;;;;;5096935;28;20851;-65
2022/05/19 04:58:09;;;;;;;2.80;2.60;;;21.40;59.50;;;;;;5096762;28;20408;-65
2022/05/19 05:00:35;;;;;;;3.00;2.80;;;21.40;59.60;;;;;;5096705;28;20185;-66
2022/05/19 05:03:02;;;;;;;2.80;2.70;;;21.40;59.60;;;;;;5096667;28;20170;-67
2022/05/19 05:05:27;;;;;;;3.33;3.13;;;21.40;59.70;;;;;;5096562;28;20936;-67
2022/05/19 05:07:53;;;;;;;2.83;2.70;;;21.30;59.80;;;;;;5096629;28;20401;-65
2022/05/19 05:10:19;;;;;;;3.53;3.30;;;21.30;59.70;;;;;;5096508;28;20174;-66
2022/05/19 05:12:44;;;;;;;2.90;2.70;;;21.30;59.80;;;;;;5096503;28;20174;-67
2022/05/19 05:15:11;;;;;;;3.00;2.80;;;21.30;59.90;;;;;;5096440;28;20232;-67
2022/05/19 05:17:36;;;;;;;3.30;3.10;;;21.30;60.00;;;;;;5096353;28;20420;-66
2022/05/19 05:20:04;;;;;;;4.10;2.63;;;21.30;60.00;;;;;;5096406;28;20491;-67
2022/05/19 05:22:34;;;;;;;2.80;2.60;;;21.30;60.10;;;;;;5094561;28;20197;-66
2022/05/19 05:25:04;;;;;;;2.93;2.83;;;21.30;60.10;;;;;;5096307;28;20437;-66
2022/05/19 05:27:30;;;;;;;3.20;3.00;;;21.30;60.20;;;;;;5096140;28;20493;-66
2022/05/19 05:29:56;;;;;;;2.90;2.70;;;21.30;60.10;;;;;;5096417;28;20734;-66
2022/05/19 05:32:21;;;;;;;2.70;2.50;;;21.30;60.20;;;;;;5095130;28;20546;-66
2022/05/19 05:34:47;;;;;;;2.73;2.60;;;21.30;60.30;;;;;;5092202;28;20198;-66
2022/05/19 05:37:12;;;;;;;3.20;3.00;;;21.30;60.30;;;;;;5082333;28;20195;-66
2022/05/19 05:39:38;;;;;;;2.60;2.50;;;21.30;60.40;;;;;;5086917;28;20193;-67
2022/05/19 05:42:05;;;;;;;3.10;2.90;;;21.30;60.50;;;;;;5095941;28;20162;-67
2022/05/19 05:44:30;;;;;;;2.67;2.50;;;21.30;60.40;;;;;;5096150;28;20232;-66
2022/05/19 05:46:56;;;;;;;2.60;2.50;;;21.30;60.70;;;;;;5095797;28;20883;-68
2022/05/19 05:49:22;;;;;;;3.20;3.00;;;21.30;60.60;;;;;;5095767;28;20499;-65
2022/05/19 05:51:48;;;;;;;3.13;3.00;;;21.30;60.50;;;;;;5095690;28;20182;-66
2022/05/19 05:54:14;;;;;;;3.13;2.93;;;21.30;60.50;;;;;;5094697;28;20262;-65
2022/05/19 05:56:40;;;;;;;2.97;2.77;;;21.30;60.60;;;;;;5095510;28;20432;-66
2022/05/19 05:59:05;;;;;;;3.60;2.80;;;21.30;60.60;;;;;;5095501;28;20408;-65
2022/05/19 06:01:31;;;;;;;2.93;2.73;;;21.30;60.60;;;;;;5095537;28;20404;-66
2022/05/19 06:03:57;;;;;;;3.30;3.03;;;21.30;60.70;;;;;;5095511;28;20166;-67
2022/05/19 06:06:25;;;;;;;2.73;2.53;;;21.30;60.70;;;;;;5095351;28;20586;-65
2022/05/19 06:08:51;;;;;;;3.43;3.23;;;21.30;60.70;;;;;;5095641;28;20179;-65
2022/05/19 06:11:17;;;;;;;3.07;2.87;;;21.30;60.70;;;;;;5095330;28;20479;-65
2022/05/19 06:13:43;;;;;;;3.20;3.00;;;21.30;60.70;;;;;;5095519;28;20412;-66
2022/05/19 06:16:11;;;;;;;3.40;3.20;;;21.30;60.80;;;;;;5095142;28;20466;-66
2022/05/19 06:18:37;;;;;;;2.97;2.77;;;21.30;60.80;;;;;;5095219;28;20504;-67
2022/05/19 06:21:04;;;;;;;2.97;2.77;;;21.30;60.80;;;;;;5095186;28;20495;-66
2022/05/19 06:23:30;;;;;;;3.17;2.97;;;21.30;60.80;;;;;;5095073;28;20408;-68
2022/05/19 06:25:56;;;;;;;3.00;2.80;;;21.30;60.90;;;;;;5095027;28;20763;-65
2022/05/19 06:28:22;;;;;;;3.00;2.80;;;21.30;60.80;;;;;;5095017;28;20408;-65
2022/05/19 06:30:47;;;;;;;3.10;2.90;;;21.30;60.80;;;;;;5093973;28;20200;-68
2022/05/19 06:33:17;;;;;;;2.80;2.67;;;21.30;60.80;;;;;;5094929;28;20196;-65
2022/05/19 06:35:43;;;;;;;3.27;3.07;;;21.30;60.90;;;;;;5094760;28;20225;-67
2022/05/19 06:38:09;;;;;;;2.90;2.70;;;21.30;61.00;;;;;;5094886;28;20413;-67
2022/05/19 06:40:35;;;;;;;2.87;2.67;;;21.30;61.00;;;;;;5084668;28;20810;-66
2022/05/19 06:43:05;;;;;;;3.10;2.90;;;21.30;61.00;;;;;;5092404;28;20243;-65
2022/05/19 06:45:31;;;;;;;3.00;2.80;;;21.30;61.00;;;;;;5074417;28;20401;-65
2022/05/19 06:47:57;;;;;;;2.70;2.50;;;21.30;61.00;;;;;;5076551;28;20463;-67
2022/05/19 06:50:24;;;;;;;3.20;3.00;;;21.30;61.00;;;;;;5094945;28;20611;-68
2022/05/19 06:52:53;;;;;;;3.20;3.00;;;21.30;61.10;;;;;;5094650;28;20219;-68
2022/05/19 06:55:20;;;;;;;2.70;2.60;;;21.30;61.10;;;;;;5094765;28;20456;-67
2022/05/19 06:57:47;;;;;;;2.90;2.70;;;21.30;61.10;;;;;;5094500;28;20436;-67
2022/05/19 07:00:16;;;;;;;2.73;2.63;;;21.30;61.00;;;;;;5094530;28;20407;-67
2022/05/19 07:02:49;;;;;;;3.17;2.97;;;21.30;61.20;;;;;;5094738;28;20423;-67
2022/05/19 07:05:17;;;;;;;3.17;2.87;;;21.30;61.10;;;;;;5093545;28;20749;-68
2022/05/19 07:07:43;;;;;;;3.20;3.00;;;21.30;61.00;;;;;;5094385;28;20417;-66
2022/05/19 07:10:12;;;;;;;3.20;3.00;;;21.30;61.20;;;;;;5094494;28;20491;-67
2022/05/19 07:12:38;;;;;;;4.93;3.20;;;21.30;61.10;;;;;;5094364;28;20412;-66
2022/05/19 07:15:04;;;;;;;2.70;2.50;;;21.30;61.10;;;;;;5094335;28;20855;-67
2022/05/19 07:17:30;;;;;;;2.50;2.40;;;21.30;61.10;;;;;;5094300;28;20421;-67
2022/05/19 07:22:39;;;;;;;2.83;2.63;;;21.30;61.10;;;;;;5094307;28;20165;-65
2022/05/19 07:25:08;;;;;;;2.70;2.60;;;21.30;61.10;;;;;;5094219;28;20821;-66
2022/05/19 07:27:34;;;;;;;3.50;3.30;;;21.40;61.10;;;;;;5094182;28;20186;-65
2022/05/19 07:30:01;;;;;;;2.90;2.70;;;21.30;61.10;;;;;;5092016;28;20413;-65
2022/05/19 07:32:27;;;;;;;2.90;2.70;;;21.40;61.10;;;;;;5084457;28;20867;-67
2022/05/19 07:34:56;;;;;;;3.10;2.90;;;21.40;61.10;;;;;;5094095;28;20444;-65
2022/05/19 07:37:25;;;;;;;3.20;3.03;;;21.40;61.00;;;;;;5093066;28;20428;-65
2022/05/19 07:39:52;;;;;;;2.60;2.50;;;21.40;61.10;;;;;;5094108;28;20408;-66
2022/05/19 07:42:18;;;;;;;2.80;2.60;;;21.30;61.10;;;;;;5094097;28;20396;-64
2022/05/19 07:44:44;;;;;;;2.97;2.80;;;21.30;61.10;;;;;;5094079;28;20432;-67
2022/05/19 07:47:10;;;;;;;3.20;3.00;;;21.40;61.10;;;;;;5096383;28;20474;-66
2022/05/19 07:49:36;;;;;;;2.93;2.73;;;21.40;61.10;;;;;;5098084;28;20861;-67
2022/05/19 07:52:03;;;;;;;3.13;2.93;;;21.40;61.00;;;;;;5098104;28;20418;-65
2022/05/19 07:54:30;;;;;;;3.00;2.80;;;21.40;61.00;;;;;;5095569;28;20432;-65
2022/05/19 07:56:56;;;;;;;3.17;3.03;;;21.40;61.10;;;;;;5057228;28;20418;-67
2022/05/19 07:59:22;;;;;;;2.50;2.40;;;21.40;61.10;;;;;;5057470;28;20736;-66
2022/05/19 08:01:48;;;;;;;2.67;2.57;;;21.40;61.00;;;;;;5057456;28;20181;-66
2022/05/19 08:04:15;;;;;;;2.67;2.47;;;21.40;61.10;;;;;;5057663;28;20856;-66
2022/05/19 08:06:41;;;;;;;2.97;2.77;;;21.40;61.00;;;;;;5057314;28;20426;-66
2022/05/19 08:11:52;;;;;;;3.70;3.47;;;21.40;61.00;;;;;;5072167;28;20405;-67
2022/05/19 08:17:04;;;;;;;3.00;2.80;;;21.40;61.00;;;;;;5077368;28;20755;-66
2022/05/19 08:19:30;;;;;;;3.27;3.07;;;21.40;61.00;;;;;;5077185;28;20870;-67
2022/05/19 08:21:56;;;;;;;2.73;2.63;;;21.40;61.00;;;;;;5077049;28;20406;-65
2022/05/19 08:24:24;;;;;;;2.90;2.80;;;21.40;61.00;;;;;;5076063;28;20466;-66
2022/05/19 08:26:51;;;;;;;3.20;3.00;;;21.40;61.10;;;;;;5076915;28;20440;-65
2022/05/19 08:29:18;;;;;;;2.90;2.70;;;21.40;61.00;;;;;;5076948;28;20479;-67
2022/05/19 08:31:45;;;;;;;3.07;2.90;;;21.40;61.00;;;;;;5075889;28;20406;-67
2022/05/19 08:34:11;;;;;;;3.10;2.90;;;21.40;61.00;;;;;;5076881;28;20450;-66
2022/05/19 08:36:37;;;;;;;2.80;2.60;;;21.40;61.00;;;;;;5076711;28;20949;-65
2022/05/19 08:39:02;;;;;;;3.00;2.83;;;21.40;61.10;;;;;;5076977;28;20421;-65
2022/05/19 08:41:35;;;;;;;2.90;2.70;;;21.40;61.00;;;;;;5076764;28;20448;-65
2022/05/19 08:44:10;;;;;;;2.80;2.70;;;21.40;61.00;;;;;;5076794;28;20143;-65
2022/05/19 08:46:41;;;;;;;3.13;2.93;;;21.40;60.90;;;;;;5076596;28;20428;-65
2022/05/19 08:49:28;;;;;;;3.10;2.90;;;21.40;61.00;;;;;;5076345;28;20514;-66
2022/05/19 08:52:39;;;;;;;3.10;2.93;;;21.40;61.00;;;;;;5076548;28;20871;-66
2022/05/19 08:55:06;;;;;;;2.97;2.77;;;21.40;61.00;;;;;;5034654;28;20588;-65
2022/05/19 08:57:44;;;;;;;2.30;2.20;;;21.40;61.10;;;;;;5069916;28;20512;-67
2022/05/19 09:00:24;;;;;;;2.80;2.70;;;21.40;61.10;;;;;;5076426;28;20400;-65
2022/05/19 09:02:56;;;;;;;2.60;2.50;;;21.40;61.10;;;;;;5076398;28;20477;-65
2022/05/19 09:05:43;;;;;;;3.17;2.97;;;21.40;61.10;;;;;;5076348;28;20421;-67
2022/05/19 09:08:26;;;;;;;3.33;3.13;;;21.40;61.10;;;;;;5076299;28;20854;-66
2022/05/19 09:11:19;;;;;;;2.60;2.50;;;21.40;61.10;;;;;;5076330;28;20484;-67
2022/05/19 09:13:51;;;;;;;3.40;3.20;;;21.40;61.10;;;;;;5076281;28;20417;-67
2022/05/19 09:16:35;;;;;;;3.10;2.90;;;21.40;61.10;;;;;;5076315;28;20941;-66
2022/05/19 09:19:10;;;;;;;2.60;2.50;;;21.40;61.10;;;;;;5076136;28;20401;-67
2022/05/19 09:21:38;;;;;;;2.87;2.67;;;21.40;61.10;;;;;;5076085;28;20896;-66
2022/05/19 09:24:05;;;;;;;3.20;3.00;;;21.40;61.10;;;;;;5076068;28;20513;-65
2022/05/19 09:26:52;;;;;;;3.53;3.33;;;21.40;61.20;;;;;;5075878;28;20492;-65
2022/05/19 09:29:21;;;;;;;3.30;3.10;;;21.40;61.20;;;;;;5076300;28;20451;-67
2022/05/19 09:32:18;;;;;;;3.20;3.00;;;21.40;61.10;;;;;;5075919;28;20437;-65
2022/05/19 09:35:05;;;;;;;2.70;2.60;;;21.40;61.20;;;;;;5075806;28;20466;-65
2022/05/19 09:37:43;;;;;;;3.23;3.03;;;21.40;61.20;;;;;;5076042;28;20417;-65
2022/05/19 09:40:12;;;;;;;2.60;2.50;;;21.40;61.10;;;;;;5075723;28;20535;-65
2022/05/19 09:42:49;;;;;;;3.17;3.00;;;21.40;61.10;;;;;;5075686;28;20949;-65
2022/05/19 09:45:15;;;;;;;2.77;2.67;;;21.40;61.20;;;;;;5075643;28;20455;-65
2022/05/19 09:47:45;;;;;;;2.67;2.57;;;21.40;61.20;;;;;;5074404;28;20988;-65
2022/05/19 09:50:17;;;;;;;3.23;3.03;;;21.40;61.20;;;;;;5075611;28;20454;-67
2022/05/19 09:52:44;;;;;;;3.60;3.40;;;21.40;61.10;;;;;;5075533;28;20440;-65
2022/05/19 09:55:15;;;;;;;3.10;2.90;;;21.40;61.10;;;;;;5077995;28;20456;-65
2022/05/19 09:57:51;;;;;;;2.50;2.40;;;21.40;61.20;;;;;;5074363;28;20433;-66
2022/05/19 10:00:20;;;;;;;2.53;2.43;;;21.40;61.10;;;;;;5084022;28;20551;-66
2022/05/19 10:02:50;;;;;;;2.60;2.50;;;21.40;61.10;;;;;;5090369;28;20413;-66
2022/05/19 10:05:25;;;;;;;2.57;2.47;;;21.40;61.10;;;;;;5095800;28;20412;-65
2022/05/19 10:07:57;;;;;;;3.03;2.83;;;21.40;61.10;;;;;;5092523;28;20416;-67
2022/05/19 10:10:29;;;;;;;2.97;2.77;;;21.40;61.10;;;;;;5094523;28;20396;-68
2022/05/19 10:13:00;;;;;;;3.17;3.00;;;21.40;61.10;;;;;;5077598;28;20873;-65
2022/05/19 10:15:40;;;;;;;3.70;3.10;;;21.40;61.10;;;;;;5085733;28;20613;-65
2022/05/19 10:18:20;;;;;;;2.77;2.57;;;21.40;61.30;;;;;;5095303;28;20392;-67
2022/05/19 10:21:02;;;;;;;3.10;2.90;;;21.40;61.20;;;;;;5095253;28;20373;-65
2022/05/19 10:24:00;;;;;;;3.17;2.97;;;21.40;61.30;;;;;;5095231;28;20887;-66
2022/05/19 10:26:37;;;;;;;3.20;3.00;;;21.40;61.20;;;;;;5089272;28;20894;-66
2022/05/19 10:32:30;;;;;;;3.00;2.80;;;21.40;61.30;;;;;;5095064;28;20391;-66
2022/05/19 10:35:09;;;;;;;2.97;2.77;;;21.40;61.30;;;;;;5094855;28;20607;-65
2022/05/19 10:38:01;;;;;;;2.50;2.40;;;21.40;61.30;;;;;;5094911;28;20412;-66
2022/05/19 10:40:33;;;;;;;2.70;2.60;;;21.40;61.20;;;;;;5093908;28;20426;-66
2022/05/19 10:43:29;;;;;;;3.13;2.93;;;21.40;61.20;;;;;;5086019;28;20449;-65
2022/05/19 10:45:59;;;;;;;3.03;2.83;;;21.40;61.20;;;;;;5054479;28;20452;-67
2022/05/19 10:48:37;;;;;;;2.80;2.70;;;21.40;61.20;;;;;;5054318;28;20958;-66
2022/05/19 10:51:12;;;;;;;2.70;2.60;;;21.40;61.20;;;;;;5064288;28;20511;-66
2022/05/19 10:53:53;;;;;;;3.10;2.90;;;21.40;61.30;;;;;;5085361;28;20944;-66
2022/05/19 10:56:53;;;;;;;3.37;3.17;;;21.40;61.30;;;;;;5074175;28;20536;-67
2022/05/19 10:59:47;;;;;;;2.60;2.50;;;21.40;61.30;;;;;;5083030;28;20440;-66
2022/05/19 11:02:34;;;;;;;2.97;2.77;;;21.40;61.40;;;;;;5079732;28;20421;-66
2022/05/19 11:05:28;;;;;;;3.70;3.40;;;21.40;61.50;;;;;;5093230;28;21027;-67
2022/05/19 11:08:07;;;;;;;3.33;3.03;;;21.40;61.60;;;;;;5093180;28;20415;-68
2022/05/19 11:10:53;;;;;;;3.40;3.20;;;21.40;61.60;;;;;;5083275;28;20481;-66
2022/05/19 11:13:38;;;;;;;3.30;3.10;;;21.40;61.50;;;;;;5084774;28;21065;-67
2022/05/19 11:16:27;;;;;;;3.27;3.07;;;21.40;61.50;;;;;;5074039;28;20792;-68
2022/05/19 11:19:03;;;;;;;3.40;3.20;;;21.40;61.50;;;;;;5074245;28;20827;-67
2022/05/19 11:22:01;;;;;;;3.00;2.80;;;21.40;61.60;;;;;;5073793;28;20391;-66
2022/05/19 11:24:29;;;;;;;3.10;2.90;;;21.40;61.70;;;;;;5062157;28;20512;-67
2022/05/19 11:27:17;;;;;;;3.20;3.00;;;21.40;61.60;;;;;;5074040;28;20425;-66
2022/05/19 11:29:54;;;;;;;3.37;3.13;;;21.40;61.60;;;;;;5074020;28;20965;-67
2022/05/19 11:32:28;;;;;;;3.23;3.03;;;21.40;61.50;;;;;;5074078;28;20401;-66
2022/05/19 11:35:15;;;;;;;2.90;2.80;;;21.40;61.60;;;;;;5079353;28;20444;-67
2022/05/19 11:38:04;;;;;;;3.23;3.03;;;21.40;61.70;;;;;;5085520;28;20436;-67
2022/05/19 11:40:36;;;;;;;3.27;3.07;;;21.40;61.60;;;;;;5093089;28;20772;-65
2022/05/19 11:43:35;;;;;;;3.20;3.00;;;21.40;61.60;;;;;;5090643;28;20511;-67
2022/05/19 11:46:09;;;;;;;3.33;3.13;;;21.40;61.50;;;;;;5079269;28;20881;-66
2022/05/19 11:57:32;;;;;;;3.50;3.20;;;21.40;61.50;;;;;;5073748;28;20462;-65
2022/05/19 12:00:00;;;;;;;3.20;2.93;;;21.40;61.50;;;;;;5083382;28;20419;-65
2022/05/19 12:02:39;;;;;;;3.27;3.07;;;21.40;61.50;;;;;;5082206;28;20893;-66
2022/05/19 12:05:12;;;;;;;2.93;2.73;;;21.40;61.40;;;;;;5093983;28;20372;-66
2022/05/19 12:08:08;;;;;;;3.20;3.00;;;21.40;61.40;;;;;;5081591;28;20785;-67
2022/05/19 12:10:39;;;;;;;3.07;2.97;;;21.40;61.40;;;;;;5074087;28;20460;-66
2022/05/19 12:13:05;;;;;;;3.00;2.80;;;21.40;61.40;;;;;;5092635;28;20420;-67
2022/05/19 12:15:34;;;;;;;3.07;2.87;;;21.50;61.30;;;;;;5093968;28;20458;-67
2022/05/19 12:18:18;;;;;;;2.93;2.83;;;21.50;61.30;;;;;;5093745;28;20870;-67
2022/05/19 12:20:51;;;;;;;3.10;2.90;;;21.50;61.30;;;;;;5093739;28;20392;-67
2022/05/19 12:23:37;;;;;;;3.10;2.90;;;21.50;61.40;;;;;;5094095;28;20381;-65
2022/05/19 12:26:19;;;;;;;3.00;2.80;;;21.50;61.30;;;;;;5093991;28;20742;-65
2022/05/19 12:28:44;;;;;;;3.10;2.90;;;21.50;61.30;;;;;;5093751;28;20470;-66
2022/05/19 12:34:32;;;;;;;2.83;2.73;;;21.40;61.40;;;;;;5097608;28;20177;-66
2022/05/19 12:37:13;;;;;;;3.00;2.80;;;21.40;61.40;;;;;;5097204;28;20493;-66
2022/05/19 12:39:50;;;;;;;3.10;2.90;;;21.40;61.40;;;;;;5097457;28;20411;-65
2022/05/19 12:42:23;;;;;;;3.17;3.00;;;21.40;61.40;;;;;;5096585;28;20769;-66
2022/05/19 12:44:55;;;;;;;3.30;3.10;;;21.40;61.50;;;;;;5096166;28;20419;-65
2022/05/19 12:47:32;;;;;;;3.30;3.10;;;21.40;61.50;;;;;;5095888;28;20421;-66
2022/05/19 12:50:01;;;;;;;2.83;2.73;;;21.40;61.40;;;;;;5097032;28;20477;-66
2022/05/19 12:52:52;;;;;;;3.50;3.30;;;21.50;61.30;;;;;;5096982;28;20401;-66
2022/05/19 12:55:24;;;;;;;2.67;2.57;;;21.50;61.30;;;;;;5096777;28;20460;-65
2022/05/19 12:57:51;;;;;;;2.50;2.40;;;21.40;61.40;;;;;;5096850;28;20408;-65
2022/05/19 13:00:37;;;;;;;2.70;2.60;;;21.40;61.40;;;;;;5097134;28;20779;-66
2022/05/19 13:03:11;;;;;;;2.97;2.77;;;21.50;61.40;;;;;;5096825;28;20421;-66
2022/05/19 13:05:46;;;;;;;3.60;3.40;;;21.40;61.40;;;;;;5095731;28;20416;-66
2022/05/19 13:08:38;;;;;;;3.80;3.60;;;21.40;61.40;;;;;;5096677;28;20728;-65
2022/05/19 13:11:13;;;;;;;3.60;3.00;;;21.40;61.50;;;;;;5096579;28;20397;-65
2022/05/19 13:13:41;;;;;;;2.93;2.80;;;21.40;61.50;;;;;;5096533;28;20511;-65
2022/05/19 13:16:13;;;;;;;3.07;2.90;;;21.40;61.40;;;;;;5096379;28;20456;-65
2022/05/19 13:18:46;;;;;;;3.50;3.30;;;21.40;61.40;;;;;;5096470;28;20736;-66
2022/05/19 13:21:21;;;;;;;3.03;2.93;;;21.50;61.40;;;;;;5096456;28;20504;-67
2022/05/19 13:23:47;;;;;;;3.30;3.10;;;21.50;61.40;;;;;;5096430;28;20384;-66
2022/05/19 13:26:24;;;;;;;3.30;3.10;;;21.50;61.40;;;;;;5095288;28;20451;-66
2022/05/19 13:32:01;;;;;;;3.17;2.97;;;21.50;61.40;;;;;;5096195;28;20416;-67
2022/05/19 13:34:28;;;;;;;2.87;2.67;;;21.50;61.40;;;;;;5096218;28;20468;-65
2022/05/19 13:36:59;;;;;;;3.20;3.00;;;21.40;61.40;;;;;;5095942;28;20452;-67